Horace, North Dakota
Current Conditions -  °F | °C
As of 1:53 PM on Friday 24 Oct 2014 (Local Time) from KFAR Reporting Station
Clear Clear  
Wind Chill: 71°   Ceiling: Unl
Heat Index: 71°   Visibility: 10mi
Dew Point: 43°   Wind: 12mph
Humidity: 36%   Direction: 230°SW
Pressure: 29.79"   Gusts: NA
Location:  46.76°N, 96.9°W
Report Text: KFAR 241853Z 23010KT 10SM CLR 22/06 A2979 RMK AO2 SLP089 T02170061
Loading
Personal Weather Stations






























Interactive Weather Map
Tropical Storm Tracking
New forecast layout! Learn more

10-Day Weather Forecast

Advertisements
Track Severe Weather on mobile